Tiempo atmosférico en la estación meteorológica de Albarracín, Teruel (1130 m.)



Fecha
DESCASC
Temp. máxima en grados centígrados (hora)
DESCASC
Temp. mínima en grados centígrados (hora)
DESCASC
Temp. media en grados centígrados
DESCASC
Racha de viento máxima en m/sg (hora)
DESCASC
Velocidad máxima media en intervalos de 10 minutos(hora)
DESCASC
Precipitaciones diarias en mm
DESCASC
Precipitaciones de 00:00 a 06:00 en mm
DESCASC
Precipitaciones de 06:00 a 12:00 en mm
DESCASC
Precipitaciones de 12:00 a 18:00 en mm
DESCASC
Precipitaciones de 18:00 a 24:00 en mm
DESCASC
23-05-2018 22.8 (16:10) 9.7 (06:00) 16.2 9.17 (18:00) 4.44 (15:30) 0 0 0 0 0
22-05-2018 18 (18:40) 6.7 (07:30) 12.3 6.94 (15:50) 4.17 (17:10) 1.8 0 0 1.6 0.2
21-05-2018 16 (17:00) 8.7 (05:40) 12.3 7.5 (14:20) 3.89 (14:30) 1 0 0 1 0
20-05-2018 16.8 (15:10) 9.5 (00:00) 13.1 8.61 (18:20) 5.83 (21:00) 29.8 0.8 0 0 29
19-05-2018 18.8 (15:10) 5 (06:40) 11.9 9.72 (15:30) 4.17 (15:40) 0 0 0 0 0
18-05-2018 17.7 (14:50) 9.4 (00:00) 13.6 11.67 (15:10) 5.83 (15:10) 12.8 1.2 2 9.4 0.2
17-05-2018 22.4 (17:30) 4.8 (00:00) 13.6 11.39 (18:30) 5.28 (19:10) 0.2 0 0 0 0.2
16-05-2018 20.4 (16:20) 3.3 (00:00) 11.8 8.61 (16:50) 5.28 (16:50) 0 0 0 0 0
15-05-2018 17 (17:40) 3.7 (00:00) 10.4 8.89 (20:00) 5.83 (20:10) 0 0 0 0 0
14-05-2018 15 (17:50) 5.2 (00:00) 10.1 12.5 (14:50) 6.67 (12:30) 0 0 0 0 0
13-05-2018 13 (17:50) 0.9 (00:00) 6.9 11.11 (17:20) 6.67 (17:40) 0 0 0 0 0
12-05-2018 20.1 (15:30) 5.8 (00:00) 13 13.61 (21:30) 7.22 (21:10) 0.6 0 0 0 0.6
11-05-2018 22.3 (16:30) 7.4 (06:00) 14.8 8.33 (15:20) 4.72 (14:00) 0 0 0 0 0
10-05-2018 18.9 (19:20) 8.5 (00:00) 13.7 7.22 (00:50) 3.89 (01:00) 0 0 0 0 0
09-05-2018 22.5 (16:30) 7.8 (00:00) 15.2 11.11 (17:10) 6.11 (18:10) 0 0 0 0 0
08-05-2018 20.2 (18:00) 6.7 (00:00) 13.5 11.11 (17:10) 5.83 (17:50) 0.2 0.2 0 0 0
07-05-2018 16.7 (13:30) 4.9 (00:00) 10.8 6.94 (14:40) 3.61 (18:00) 16.2 0 0.6 15.2 0.4
06-05-2018 19.9 (15:50) 5.7 (06:20) 12.8 9.17 (19:30) 5 (19:30) 0 0 0 0 0
05-05-2018 18.6 (14:30) 4.4 (00:00) 11.5 9.17 (17:50) 5.56 (17:50) 0 0 0 0 0
04-05-2018 16.7 (18:10) 2.7 (00:00) 9.7 9.72 (09:20) 5 (09:00) 0 0 0 0 0
03-05-2018 13.7 (16:50) 5.3 (00:00) 9.5 12.78 (12:40) 7.5 (12:50) 0 0 0 0 0
02-05-2018 14.1 (18:40) -0.9 (-00:0) 6.6 11.11 (11:20) 6.94 (11:20) 0 0 0 0 0
01-05-2018 11.5 (18:00) 0.1 (02:30) 5.8 9.72 (12:50) 5.28 (12:20) 0 0 0 0 0
30-04-2018 10.6 (18:40) 1.3 (00:00) 6 9.44 (19:30) 5.83 (19:30) 0 0 0 0 0
29-04-2018 10.7 (00:00) 3.6 (00:00) 7.1 13.89 (16:20) 6.67 (14:20) 1.2 0 1 0.2 0
28-04-2018 18.5 (14:10) 4.2 (00:00) 11.3 13.61 (14:30) 7.5 (13:50) 0 0 0 0 0
27-04-2018 23.3 (14:50) 9.3 (00:00) 16.3 9.44 (15:20) 5.28 (15:30) 0 0 0 0 0
26-04-2018 23.4 (16:30) 6.4 (00:00) 14.9 6.67 (17:40) 3.61 (17:50) 0 0 0 0 0
25-04-2018 24.3 (15:30) 6.2 (00:00) 15.2 12.22 (15:40) 5.83 (17:50) 0 0 0 0 0

Gráficas

Temp. máximas Temp. mínimas Temp. medias Precipitaciones Rachas de viento máximas Velocidades máximas media en intervalos de 10 minutos

Datos horarios

Fecha y hora oficial Temperatura (ºC) Velocidad del viento (km/h) Dirección del viento Racha (km/h) Dirección de racha Precipitación (mm) Presión (hPa) Tendencia (hPa) Humedad (%)
2018-05-24 23:00:00 14.2 4 Noroeste 6 Oeste 0 -- -- 66
2018-05-24 22:00:00 15.6 2 Sudoeste 13 Sur 0 -- -- 60
2018-05-24 21:00:00 18 4 Sudeste 20 Sudeste 0 -- -- 51
2018-05-24 20:00:00 19.1 13 Sudeste 24 Sur 0 -- -- 52
2018-05-24 19:00:00 21.3 12 Sudeste 24 Este 0 -- -- 52
2018-05-24 18:00:00 22.2 15 Sudeste 28 Este 0 -- -- 46
2018-05-24 17:00:00 23.7 16 Sudeste 27 Sudeste 0 -- -- 37
2018-05-24 16:00:00 23.4 13 Sudeste 24 Sudeste 0 -- -- 37
2018-05-24 15:00:00 21 10 Sudeste 26 Sudeste 0 -- -- 41
2018-05-24 14:00:00 21.2 16 Sudeste 28 Sur 0 -- -- 39
2018-05-24 13:00:00 21.7 18 Sudeste 32 Sudeste 0 -- -- 39
2018-05-24 12:00:00 21 14 Sur 28 Sur 0 -- -- 41
2018-05-24 11:00:00 19.6 13 Sudeste 34 Sudeste 0 -- -- 45
2018-05-24 10:00:00 17.7 5 Este 19 Sudeste 0 -- -- 49
2018-05-24 09:00:00 14.7 7 Sudeste 15 Sudoeste 0 -- -- 67
2018-05-24 08:00:00 12.5 6 Sur 20 Sudoeste 0 -- -- 69
2018-05-24 07:00:00 11.2 3 Nordeste 10 Oeste 0 -- -- 76
2018-05-24 06:00:00 11.6 5 Sudeste 11 Sur 0 -- -- 76
2018-05-24 05:00:00 11.7 5 Sudeste 9 Sudeste 0 -- -- 79
2018-05-24 04:00:00 11.7 0 Calma 8 Oeste 0 -- -- 84
2018-05-24 03:00:00 11.7 4 Oeste 6 Oeste 0 -- -- 87
2018-05-24 02:00:00 13 0 Calma 10 Norte 0 -- -- 84
2018-05-24 01:00:00 13.6 6 Norte 12 Norte 0 -- -- 83
2018-05-24 00:00:00 14.2 6 Noroeste 10 Norte 0 -- -- 80
2018-05-23 23:00:00 15 2 Noroeste 6 Sudoeste 0 -- -- 72
2018-05-23 22:00:00 16.7 3 Noroeste 19 Norte 0 -- -- 70
2018-05-23 21:00:00 18.7 12 Norte 23 Norte 0 -- -- 58
2018-05-23 20:00:00 21.5 10 Sur 29 Sudeste 0 -- -- 37
2018-05-23 19:00:00 21.9 15 Sur 30 Sur 0 -- -- 39
2018-05-23 18:00:00 22.8 15 Sur 33 Sudoeste 0 -- -- 37
2018-05-23 17:00:00 22.5 16 Sur 27 Sudoeste 0 -- -- 42
2018-05-23 16:00:00 22.5 8 Sur 29 Sudeste 0 -- -- 46
2018-05-23 15:00:00 21.6 10 Sudeste 25 Sudeste 0 -- -- 43
2018-05-23 14:00:00 21.2 7 Sur 21 Sudeste 0 -- -- 47
2018-05-23 13:00:00 21.1 9 Sudeste 29 Sudeste 0 -- -- 46
2018-05-23 12:00:00 20.1 12 Sudeste 20 Sudeste 0 -- -- 50
2018-05-23 11:00:00 18.1 6 Sudeste 13 Sudeste 0 -- -- 60
2018-05-23 10:00:00 14.2 2 Este 12 Sudeste 0 -- -- 82
2018-05-23 09:00:00 11.2 7 Sudeste 13 Sudeste 0 -- -- 89
2018-05-23 08:00:00 9.9 3 Noroeste 14 Sudeste 0 -- -- 92
2018-05-23 07:00:00 9.9 9 Sudeste 18 Este 0 -- -- 91
2018-05-23 06:00:00 9.7 3 Norte 18 Este 0 -- -- 91
2018-05-23 05:00:00 9.8 3 Sudeste 17 Sudeste 0 -- -- 91
2018-05-23 04:00:00 9.9 4 Este 11 Sudeste 0 -- -- 92
2018-05-23 03:00:00 10.3 5 Sur 16 Sudeste 0 -- -- 91
2018-05-23 02:00:00 11.1 6 Sudeste 18 Sudeste 0 -- -- 90
2018-05-23 01:00:00 11.5 7 Sudeste 16 Este 0 -- -- 91
2018-05-23 00:00:00 12.3 5 Sudeste 12 Este 0 -- -- 87
2018-05-22 23:00:00 12.9 2 Oeste 8 Noroeste 0 -- -- 82
2018-05-22 22:00:00 13.7 3 Sudeste 17 Sudoeste 0 -- -- 83
2018-05-22 21:00:00 13.9 3 Este 20 Sudoeste 0 -- -- 81
2018-05-22 20:00:00 16.1 7 Sudoeste 16 Sur 0 -- -- 65
2018-05-22 19:00:00 17.8 7 Sur 12 Sur 0.2 -- -- 56
2018-05-22 18:00:00 17.1 5 Este 24 Sur 0 -- -- 64
2018-05-22 17:00:00 15.7 11 Sur 23 Sur 0 -- -- 72
2018-05-22 16:00:00 16.4 10 Sur 25 Sudoeste 0 -- -- 74
2018-05-22 15:00:00 17.5 6 Sur 13 Este 0 -- -- 65
2018-05-22 14:00:00 14.6 4 Sudeste 22 Sur 1.6 -- -- 82
2018-05-22 13:00:00 16 9 Sudeste 13 Sur 0 -- -- 68
2018-05-22 12:00:00 15.7 3 Norte 17 Norte 0 -- -- 69
2018-05-22 11:00:00 15.4 6 Nordeste 14 Este 0 -- -- 70
2018-05-22 10:00:00 14.4 5 Este 11 Este 0 -- -- 72
2018-05-22 09:00:00 10.6 3 Este 9 Sudeste 0 -- -- 85
2018-05-22 08:00:00 7.4 0 Calma 5 Sudeste 0 -- -- 94
2018-05-22 07:00:00 6.8 0 Calma 5 Noroeste 0 -- -- 93
2018-05-22 06:00:00 7.7 3 Sur 7 Sur 0 -- -- 90
2018-05-22 05:00:00 9 7 Sudeste 12 Sudeste 0 -- -- 87
2018-05-22 04:00:00 9.3 7 Este 17 Sudeste 0 -- -- 86
2018-05-22 03:00:00 10.1 10 Sudeste 20 Sudeste 0 -- -- 81
2018-05-22 02:00:00 10.9 10 Sur 18 Sudoeste 0 -- -- 77
2018-05-22 01:00:00 11.2 5 Sur 20 Sur 0 -- -- 77
2018-05-22 00:00:00 10.7 6 Sur 18 Sudoeste 0 -- -- 83
2018-05-21 23:00:00 11.3 11 Sur 17 Sur 0 -- -- 81
2018-05-21 22:00:00 11.8 4 Sudoeste 12 Sudeste 0 -- -- 81
2018-05-21 21:00:00 13.5 7 Sudeste 12 Sudeste 0 -- -- 75
2018-05-21 20:00:00 14.5 5 Sudoeste 13 Oeste 0 -- -- 65
2018-05-21 19:00:00 15.2 3 Sudoeste 17 Oeste 0 -- -- 66
2018-05-21 18:00:00 15.6 8 Oeste 20 Sudeste 0 -- -- 61
2018-05-21 17:00:00 16 9 Sur 23 Sudoeste 0 -- -- 67
2018-05-21 16:00:00 14 11 Sudoeste 20 Sur 0 -- -- 79
2018-05-21 15:00:00 11.8 11 Sudoeste 27 Sudoeste 1 -- -- 84
2018-05-21 14:00:00 12.2 10 Sudoeste 21 Sudoeste 0 -- -- 79
2018-05-21 13:00:00 13.9 12 Sur 24 Sur 0 -- -- 66
2018-05-21 12:00:00 15.3 3 Norte 22 Noroeste 0 -- -- 66
2018-05-21 11:00:00 15.5 8 Sudoeste 15 Sur 0 -- -- 68
2018-05-21 10:00:00 13.1 6 Sur 15 Sudeste 0 -- -- 76
2018-05-21 09:00:00 11.6 7 Este 14 Este 0 -- -- 87
2018-05-21 08:00:00 9.3 3 Sudeste 15 Sur 0 -- -- 90
2018-05-21 07:00:00 9.1 6 Sur 16 Sur 0 -- -- 90
2018-05-21 06:00:00 8.8 6 Sur 17 Sur 0 -- -- 91
2018-05-21 05:00:00 8.9 6 Sudeste 14 Sur 0 -- -- 91
2018-05-21 04:00:00 8.9 10 Sudeste 17 Sur 0 -- -- 93
2018-05-21 03:00:00 9 8 Sudeste 15 Sur 0 -- -- 93
2018-05-21 02:00:00 9.4 2 Sudeste 15 Sudoeste 0 -- -- 92
2018-05-21 01:00:00 9.7 4 Sur 13 Sudoeste 0 -- -- 92
2018-05-21 00:00:00 9.7 8 Sudeste 14 Sudeste 0 -- -- 94
2018-05-20 23:00:00 9.5 4 Sudeste 9 Sudoeste 1 -- -- 94
2018-05-20 22:00:00 9.6 0 Calma 30 Oeste 4 -- -- 92
2018-05-20 21:00:00 10.1 21 Noroeste 28 Noroeste 13.8 -- -- 92
2018-05-20 20:00:00 11.4 9 Nordeste 23 Noroeste 6.6 -- -- 83
2018-05-20 19:00:00 13.1 13 Noroeste 31 Este 3.6 -- -- 77
2018-05-20 18:00:00 16.5 10 Nordeste 20 Nordeste 0 -- -- 61
2018-05-20 17:00:00 16.4 3 Noroeste 15 Sudoeste 0 -- -- 56
2018-05-20 16:00:00 15.7 4 Norte 22 Este 0 -- -- 61
2018-05-20 15:00:00 16.6 7 Norte 17 Noroeste 0 -- -- 58
2018-05-20 14:00:00 15.6 6 Norte 14 Norte 0 -- -- 62
2018-05-20 13:00:00 15.1 5 Norte 10 Norte 0 -- -- 66
2018-05-20 12:00:00 14.3 2 Noroeste 6 Sudeste 0 -- -- 60
2018-05-20 11:00:00 13.2 3 Nordeste 6 Noroeste 0 -- -- 79
2018-05-20 10:00:00 11.7 3 Norte 7 Norte 0 -- -- 87
2018-05-20 09:00:00 11 0 Calma 4 Oeste 0 -- -- 90
2018-05-20 08:00:00 10.5 3 Sudoeste 9 Sudeste 0 -- -- 91
2018-05-20 07:00:00 10.1 4 Sudeste 11 Sur 0 -- -- 91
2018-05-20 06:00:00 10.3 0 Calma 9 Sudoeste 0.2 -- -- 92
2018-05-20 05:00:00 10.3 0 Calma 4 Sur 0 -- -- 93
2018-05-20 04:00:00 10.6 0 Calma 5 Sudeste 0 -- -- 91
2018-05-20 03:00:00 10.8 0 Calma 6 Sudeste 0.4 -- -- 92
2018-05-20 02:00:00 11.1 3 Sudeste 8 Sudeste 0.2 -- -- 88
2018-05-20 01:00:00 11.7 2 Sur 9 Este 0 -- -- 81
2018-05-20 00:00:00 12.4 3 Sur 14 Sudeste 0 -- -- 77
2018-05-19 23:00:00 13.3 4 Sudeste 13 Sudeste 0 -- -- 75
2018-05-19 22:00:00 14.2 3 Norte 16 Oeste 0 -- -- 68
2018-05-19 21:00:00 15.3 2 Este 12 Nordeste 0 -- -- 62
2018-05-19 20:00:00 16.6 3 Sudeste 13 Sudeste 0 -- -- 58
2018-05-19 19:00:00 16.7 5 Sudoeste 13 Sudeste 0 -- -- 62
2018-05-19 18:00:00 16.1 7 Noroeste 14 Oeste 0 -- -- 61
2018-05-19 17:00:00 16.3 6 Nordeste 25 Norte 0 -- -- 60
2018-05-19 16:00:00 17.8 12 Norte 35 Norte 0 -- -- 54
2018-05-19 15:00:00 18.3 12 Nordeste 26 Sudeste 0 -- -- 55
2018-05-19 14:00:00 16.9 9 Norte 17 Norte 0 -- -- 56
2018-05-19 13:00:00 16.7 8 Norte 22 Este 0 -- -- 59
2018-05-19 12:00:00 15.1 6 Nordeste 17 Sudeste 0 -- -- 72
2018-05-19 11:00:00 13.8 2 Sudeste 8 Este 0 -- -- 77
2018-05-19 10:00:00 10.5 4 Este 7 Este 0 -- -- 93
2018-05-19 09:00:00 7.9 4 Sudeste 13 Este 0 -- -- 95
2018-05-19 08:00:00 5.9 0 Calma 4 Sudeste 0 -- -- 98
2018-05-19 07:00:00 5 0 Calma 5 Sudeste 0 -- -- 98
2018-05-19 06:00:00 5.4 3 Sudeste 7 Sudeste 0 -- -- 98
2018-05-19 05:00:00 5.9 3 Oeste 10 Este 0 -- -- 97
2018-05-19 04:00:00 6.6 0 Calma 7 Este 0 -- -- 96
2018-05-19 03:00:00 7.1 3 Sudeste 8 Sudeste 0 -- -- 96
2018-05-19 02:00:00 7.7 0 Calma 4 Este 0 -- -- 94
2018-05-19 01:00:00 8.5 0 Calma 4 Noroeste 0 -- -- 92
2018-05-19 00:00:00 9.4 0 Calma 3 Norte 0 -- -- 92
2018-05-18 23:00:00 10.6 0 Calma 6 Sur 0 -- -- 91
2018-05-18 22:00:00 10.7 3 Noroeste 5 Oeste 0 -- -- 89
2018-05-18 21:00:00 12 3 Oeste 5 Oeste 0 -- -- 84
2018-05-18 20:00:00 12.5 3 Sudeste 10 Sur 0.2 -- -- 82
2018-05-18 19:00:00 12.2 6 Sur 13 Sudoeste 0 -- -- 83
2018-05-18 18:00:00 11.2 7 Sudeste 12 Sudeste 0 -- -- 90
2018-05-18 17:00:00 10.4 2 Este 19 Noroeste 4 -- -- 92
2018-05-18 16:00:00 10.3 9 Norte 42 Nordeste 5.2 -- -- 89
2018-05-18 15:00:00 17.5 9 Norte 38 Norte 0.2 -- -- 54
2018-05-18 14:00:00 16.2 9 Oeste 23 Noroeste 0 -- -- 63
2018-05-18 13:00:00 14.6 12 Oeste 23 Oeste 0 -- -- 75
2018-05-18 12:00:00 12.2 0 Calma 6 Oeste 0.4 -- -- 86
2018-05-18 11:00:00 11.5 2 Oeste 4 Sudoeste 1.2 -- -- 89
2018-05-18 10:00:00 11.5 2 Este 6 Sur 0.4 -- -- 88
2018-05-18 09:00:00 11.4 3 Sur 6 Este 0 -- -- 90
2018-05-18 08:00:00 10.7 0 Calma 4 Sudoeste 0 -- -- 94
2018-05-18 07:00:00 10.5 0 Calma 4 Sur 0 -- -- 94
2018-05-18 06:00:00 10.6 0 Calma 2 Oeste 0 -- -- 93
2018-05-18 05:00:00 10.7 0 Calma 5 Norte 0 -- -- 91
2018-05-18 04:00:00 10.9 2 Sur 9 Sur 0.2 -- -- 90
2018-05-18 03:00:00 10.8 4 Sudeste 10 Sudeste 0.2 -- -- 91
2018-05-18 02:00:00 11.2 3 Sudeste 5 Este 0.6 -- -- 91
2018-05-18 01:00:00 11.6 2 Sudeste 17 Norte 0.2 -- -- 86
2018-05-18 00:00:00 12.7 5 Noroeste 12 Norte 0 -- -- 76
2018-05-17 23:00:00 12.4 3 Sudoeste 10 Oeste 0 -- -- 73
2018-05-17 22:00:00 12.6 7 Oeste 13 Sudoeste 0 -- -- 73
2018-05-17 21:00:00 13.3 6 Sur 30 Sudeste 0 -- -- 69
2018-05-17 20:00:00 14.9 18 Este 34 Este 0 -- -- 62
2018-05-17 19:00:00 15.1 14 Este 41 Este 0.2 -- -- 67
2018-05-17 18:00:00 18.8 6 Nordeste 37 Norte 0 -- -- 44
2018-05-17 17:00:00 22.1 11 Sudoeste 23 Sudoeste 0 -- -- 31
2018-05-17 16:00:00 22 8 Sudeste 22 Este 0 -- -- 30
2018-05-17 15:00:00 20.5 9 Sudeste 22 Sudeste 0 -- -- 33
2018-05-17 14:00:00 20.4 9 Este 26 Este 0 -- -- 31
2018-05-17 13:00:00 19.2 10 Norte 22 Norte 0 -- -- 35
2018-05-17 12:00:00 17.1 2 Sudeste 12 Nordeste 0 -- -- 41
2018-05-17 11:00:00 17 3 Este 14 Sur 0 -- -- 41
2018-05-17 10:00:00 14.9 5 Sur 15 Sudeste 0 -- -- 51
2018-05-17 09:00:00 10 13 Sudeste 24 Sudeste 0 -- -- 68
2018-05-17 08:00:00 6.2 9 Sudeste 20 Sur 0 -- -- 81
2018-05-17 07:00:00 5.1 0 Calma 14 Este 0 -- -- 83
2018-05-17 06:00:00 5.9 4 Sudeste 12 Este 0 -- -- 80
2018-05-17 05:00:00 6.5 6 Sudeste 19 Sudeste 0 -- -- 78
2018-05-17 04:00:00 7 5 Sudeste 19 Este 0 -- -- 77
2018-05-17 03:00:00 7.9 7 Sudeste 15 Este 0 -- -- 75
2018-05-17 02:00:00 8.8 4 Este 13 Este 0 -- -- 71
2018-05-17 01:00:00 10.1 3 Sur 5 Sur 0 -- -- 64
2018-05-17 00:00:00 11.5 4 Sur 15 Sudoeste 0 -- -- 59
2018-05-16 23:00:00 13.4 8 Sur 15 Sudoeste 0 -- -- 54
2018-05-16 22:00:00 15.1 3 Sur 16 Sudeste 0 -- -- 50
2018-05-16 21:00:00 16.9 9 Sudeste 15 Este 0 -- -- 48
2018-05-16 20:00:00 17.8 9 Este 14 Este 0 -- -- 46
2018-05-16 19:00:00 18.6 8 Este 23 Sudeste 0 -- -- 43
2018-05-16 18:00:00 19.4 16 Sudeste 30 Este 0 -- -- 43
2018-05-16 17:00:00 18.9 16 Este 31 Sudeste 0 -- -- 44
2018-05-16 16:00:00 19.4 13 Sudeste 28 Sudeste 0 -- -- 43
2018-05-16 15:00:00 20 9 Sudeste 25 Sudeste 0 -- -- 40
2018-05-16 14:00:00 19.1 7 Sudeste 22 Este 0 -- -- 42
2018-05-16 13:00:00 18.7 8 Este 22 Norte 0 -- -- 47
2018-05-16 12:00:00 16.9 7 Este 18 Norte 0 -- -- 48
2018-05-16 11:00:00 14.5 3 Sudeste 6 Sur 0 -- -- 56
2018-05-16 10:00:00 11.5 3 Este 9 Este 0 -- -- 66
2018-05-16 09:00:00 7.7 6 Este 12 Este 0 -- -- 82
2018-05-16 08:00:00 4.1 2 Sudeste 10 Sudeste 0 -- -- 93
2018-05-16 07:00:00 3.4 0 Calma 6 Sudeste 0 -- -- 92
2018-05-16 06:00:00 3.9 0 Calma 5 Este 0 -- -- 90
2018-05-16 05:00:00 4.1 0 Calma 6 Noroeste 0 -- -- 91
2018-05-16 04:00:00 4.7 2 Noroeste 7 Sur 0 -- -- 89
2018-05-16 03:00:00 5.5 0 Calma 7 Sudeste 0 -- -- 88
2018-05-16 02:00:00 5.9 0 Calma 5 Noroeste 0 -- -- 86
2018-05-16 01:00:00 6.9 2 Oeste 8 Noroeste 0 -- -- 82
2018-05-16 00:00:00 8.1 4 Noroeste 7 Noroeste 0 -- -- 80
2018-05-15 23:00:00 10 2 Norte 13 Noroeste 0 -- -- 73
2018-05-15 22:00:00 11.4 9 Noroeste 20 Noroeste 0 -- -- 68
2018-05-15 21:00:00 13 10 Norte 31 Noroeste 0 -- -- 61
2018-05-15 20:00:00 15.2 20 Noroeste 32 Noroeste 0 -- -- 52
2018-05-15 19:00:00 16.3 15 Norte 27 Norte 0 -- -- 47
2018-05-15 18:00:00 16.7 13 Norte 24 Noroeste 0 -- -- 45
2018-05-15 17:00:00 16.6 10 Norte 26 Noroeste 0 -- -- 46
2018-05-15 16:00:00 15.9 9 Norte 23 Nordeste 0 -- -- 47
2018-05-15 15:00:00 15.1 7 Norte 26 Norte 0 -- -- 49
2018-05-15 14:00:00 13.5 12 Norte 26 Norte 0 -- -- 52
2018-05-15 13:00:00 11.8 16 Norte 28 Norte 0 -- -- 58
2018-05-15 12:00:00 9.4 11 Norte 21 Norte 0 -- -- 64
2018-05-15 11:00:00 7.6 14 Norte 31 Noroeste 0 -- -- 68
2018-05-15 10:00:00 6.2 12 Norte 31 Noroeste 0 -- -- 73
2018-05-15 09:00:00 5.5 10 Norte 25 Norte 0 -- -- 75
2018-05-15 08:00:00 4.8 5 Norte 17 Norte 0 -- -- 77
2018-05-15 07:00:00 4.2 3 Norte 13 Norte 0 -- -- 75
2018-05-15 06:00:00 4.3 3 Noroeste 13 Noroeste 0 -- -- 74
2018-05-15 05:00:00 3.8 6 Noroeste 14 Noroeste 0 -- -- 78
2018-05-15 04:00:00 4.4 5 Noroeste 14 Sudoeste 0 -- -- 75
2018-05-15 03:00:00 4.9 7 Norte 20 Norte 0 -- -- 75
2018-05-15 02:00:00 4.5 0 Calma 9 Nordeste 0 -- -- 77
2018-05-15 01:00:00 5.6 3 Noroeste 10 Noroeste 0 -- -- 74
2018-05-15 00:00:00 6.2 2 Noroeste 14 Nordeste 0 -- -- 73
2018-05-14 23:00:00 7 7 Norte 31 Norte 0 -- -- 69
2018-05-14 22:00:00 9.2 15 Noroeste 32 Noroeste 0 -- -- 54
2018-05-14 21:00:00 11.6 22 Noroeste 37 Noroeste 0 -- -- 41
2018-05-14 20:00:00 13.7 19 Noroeste 37 Oeste 0 -- -- 39
2018-05-14 19:00:00 14.7 21 Noroeste 41 Oeste 0 -- -- 34
2018-05-14 18:00:00 14.9 23 Noroeste 42 Noroeste 0 -- -- 34
2018-05-14 17:00:00 14.3 18 Noroeste 38 Noroeste 0 -- -- 39
2018-05-14 16:00:00 12.7 17 Noroeste 37 Oeste 0 -- -- 44
2018-05-14 15:00:00 11.9 19 Noroeste 45 Oeste 0 -- -- 41
2018-05-14 14:00:00 13.3 23 Noroeste 39 Noroeste 0 -- -- 42
2018-05-14 13:00:00 12.7 23 Noroeste 42 Noroeste 0 -- -- 48
2018-05-14 12:00:00 11.2 20 Noroeste 44 Noroeste 0 -- -- 51
2018-05-14 11:00:00 9.8 22 Noroeste 37 Oeste 0 -- -- 55
2018-05-14 10:00:00 9.2 18 Noroeste 38 Noroeste 0 -- -- 59
2018-05-14 09:00:00 8 17 Noroeste 31 Noroeste 0 -- -- 62
2018-05-14 08:00:00 6.8 16 Noroeste 31 Noroeste 0 -- -- 67
2018-05-14 07:00:00 6.7 9 Noroeste 19 Noroeste 0 -- -- 67
2018-05-14 06:00:00 5.3 2 Noroeste 4 Oeste 0 -- -- 74
2018-05-14 05:00:00 6 0 Calma 5 Norte 0 -- -- 70
2018-05-14 04:00:00 6.6 0 Calma 19 Noroeste 0 -- -- 68
2018-05-14 03:00:00 6.4 11 Noroeste 20 Norte 0 -- -- 69
2018-05-14 02:00:00 6.6 9 Noroeste 21 Noroeste 0 -- -- 69
2018-05-14 01:00:00 7 0 Calma 13 Sudoeste 0 -- -- 58
2018-05-11 20:00:00 -- -- -- -- -- -- -- -- --
2018-05-11 19:00:00 21.8 10 Oeste 28 Oeste 0 -- -- 41
2018-05-11 18:00:00 22.2 12 Oeste 23 Oeste 0 -- -- 36
2018-05-11 17:00:00 22.1 7 Sudoeste 26 Sur 0 -- -- 37
2018-05-11 16:00:00 21.9 11 Sudoeste 30 Sur 0 -- -- 40
2018-05-11 15:00:00 21.8 10 Sur 28 Sur 0 -- -- 40
2018-05-11 14:00:00 21.4 17 Sur 29 Sudoeste 0 -- -- 43
2018-05-11 13:00:00 20.3 12 Oeste 23 Sudoeste 0 -- -- 44
2018-05-11 12:00:00 19.5 8 Sudeste 23 Sudeste 0 -- -- 53
2018-05-11 11:00:00 17.8 6 Este 16 Sudeste 0 -- -- 63
2018-05-11 10:00:00 14.6 8 Sur 19 Este 0 -- -- 72
2018-05-11 09:00:00 11.8 8 Sudeste 22 Sur 0 -- -- 81
2018-05-11 08:00:00 8.9 5 Sudeste 15 Este 0 -- -- 90
2018-05-11 07:00:00 7.4 0 Calma 13 Este 0 -- -- 89
2018-05-11 06:00:00 7.4 7 Este 13 Este 0 -- -- 87
2018-05-11 05:00:00 8.4 6 Sudeste 16 Sur 0 -- -- 82
2018-05-11 04:00:00 9.4 9 Sur 17 Sudoeste 0 -- -- 80
2018-05-11 03:00:00 9.1 8 Sudoeste 17 Sudoeste 0 -- -- 81
2018-05-11 02:00:00 8.7 0 Calma 4 Nordeste 0 -- -- 81
2018-05-11 01:00:00 9.7 0 Calma 4 Sudeste 0 -- -- 76
2018-05-11 00:00:00 10.1 2 Sudoeste 6 Oeste 0 -- -- 72
2018-05-10 23:00:00 12 2 Nordeste 7 Noroeste 0 -- -- 64
2018-05-10 22:00:00 13.2 6 Norte 20 Noroeste 0 -- -- 60
2018-05-10 21:00:00 15.5 13 Noroeste 22 Noroeste 0 -- -- 51
2018-05-10 20:00:00 18.4 6 Este 12 Nordeste 0 -- -- 40
2018-05-10 19:00:00 18.6 5 Nordeste 18 Norte 0 -- -- 40
2018-05-10 18:00:00 18.6 5 Sudoeste 18 Este 0 -- -- 42
2018-05-10 17:00:00 17.9 6 Nordeste 21 Norte 0 -- -- 43
2018-05-10 16:00:00 16.8 7 Sudeste 22 Nordeste 0 -- -- 48
2018-05-10 15:00:00 17.1 9 Nordeste 26 Norte 0 -- -- 49
2018-05-10 14:00:00 16.3 9 Nordeste 23 Norte 0 -- -- 53
2018-05-10 13:00:00 15.3 10 Norte 20 Norte 0 -- -- 57
2018-05-10 12:00:00 13.7 7 Nordeste 18 Norte 0 -- -- 65
2018-05-10 11:00:00 10.8 6 Nordeste 11 Norte 0 -- -- 77
2018-05-10 10:00:00 9.9 5 Norte 12 Nordeste 0 -- -- 79
2018-05-10 09:00:00 8.9 5 Norte 12 Norte 0 -- -- 82
2018-05-10 08:00:00 8.6 6 Norte 12 Nordeste 0 -- -- 83
2018-05-10 07:00:00 8.7 7 Norte 14 Norte 0 -- -- 83
2018-05-10 06:00:00 8.5 5 Nordeste 22 Noroeste 0 -- -- 84
2018-05-10 05:00:00 8.8 7 Norte 12 Noroeste 0 -- -- 81
2018-05-10 04:00:00 9.2 6 Norte 9 Noroeste 0 -- -- 81
2018-05-10 03:00:00 9.6 4 Nordeste 15 Nordeste 0 -- -- 81
2018-05-10 02:00:00 10.5 6 Nordeste 17 Noroeste 0 -- -- 80
2018-05-10 01:00:00 11.1 14 Noroeste 26 Noroeste 0 -- -- 78
2018-05-10 00:00:00 13.3 8 Norte 20 Noroeste 0 -- -- 70
2018-05-09 23:00:00 15.2 5 Norte 16 Noroeste 0 -- -- 64
2018-05-09 22:00:00 16.4 8 Norte 23 Oeste 0 -- -- 57
2018-05-09 21:00:00 17.5 9 Noroeste 19 Noroeste 0 -- -- 48
2018-05-09 20:00:00 20.9 13 Noroeste 32 Oeste 0 -- -- 37
2018-05-09 19:00:00 21.2 12 Noroeste 34 Noroeste 0 -- -- 33
2018-05-09 18:00:00 22 17 Noroeste 40 Norte 0 -- -- 29
2018-05-09 17:00:00 22.4 17 Noroeste 32 Norte 0 -- -- 26
2018-05-09 16:00:00 22.2 17 Noroeste 35 Noroeste 0 -- -- 29
2018-05-09 15:00:00 21.6 15 Noroeste 33 Norte 0 -- -- 31
2018-05-09 14:00:00 21.1 14 Norte 32 Norte 0 -- -- 32
2018-05-09 13:00:00 19 8 Nordeste 24 Nordeste 0 -- -- 51
2018-05-09 12:00:00 17.5 9 Nordeste 22 Nordeste 0 -- -- 53
2018-05-09 11:00:00 15.7 4 Norte 14 Nordeste 0 -- -- 61
2018-05-09 10:00:00 13.5 5 Nordeste 12 Norte 0 -- -- 73
2018-05-09 09:00:00 9.9 0 Calma 6 Sudeste 0 -- -- 91
2018-05-09 08:00:00 8.1 4 Oeste 15 Sudoeste -- -- -- 95
2018-05-09 07:00:00 8.1 12 Sur 17 Sur 0 -- -- 93
2018-05-09 06:00:00 9.3 4 Sudoeste 18 Sudoeste 0 -- -- 91
2018-05-09 05:00:00 10.3 8 Sudoeste 13 Sur 0 -- -- 89
2018-05-09 04:00:00 10.7 0 Calma 8 Norte 0 -- -- 89
2018-05-09 03:00:00 10.2 5 Oeste 10 Oeste 0 -- -- 91
2018-05-09 02:00:00 10.5 4 Noroeste 10 Norte 0 -- -- 87
2018-05-09 01:00:00 11.8 4 Norte 18 Noroeste 0 -- -- 84
2018-05-09 00:00:00 12 8 Noroeste 24 Noroeste 0 -- -- 83
2018-05-08 23:00:00 13.1 14 Noroeste 27 Noroeste 0 -- -- 78
2018-05-08 22:00:00 14.5 12 Noroeste 22 Noroeste 0 -- -- 71
2018-05-08 21:00:00 16.2 13 Noroeste 26 Noroeste 0 -- -- 58
2018-05-08 20:00:00 18.5 13 Noroeste 28 Oeste 0 -- -- 46
2018-05-08 19:00:00 18.9 12 Norte 35 Noroeste 0 -- -- 45
2018-05-08 18:00:00 20.2 20 Noroeste 40 Norte 0 -- -- 43
2018-05-08 17:00:00 19.4 16 Norte 32 Norte 0 -- -- 49
2018-05-08 16:00:00 19.3 13 Norte 36 Noroeste 0 -- -- 47
2018-05-08 15:00:00 19.1 16 Norte 31 Norte 0 -- -- 49
2018-05-08 14:00:00 18.7 12 Norte 27 Norte 0 -- -- 56
2018-05-08 13:00:00 16.9 10 Norte 24 Nordeste 0 -- -- 68
2018-05-08 12:00:00 16.8 13 Norte 26 Norte 0 -- -- 68
2018-05-08 11:00:00 15.5 2 Este 12 Sudeste 0 -- -- 76
2018-05-08 10:00:00 13.1 8 Este 17 Este 0 -- -- 83
2018-05-08 09:00:00 9.2 2 Noroeste 9 Este 0 -- -- 95
2018-05-08 08:00:00 7.1 0 Calma 15 Este 0 -- -- 95
2018-05-08 07:00:00 6.7 3 Nordeste 12 Sudeste 0 -- -- 95
2018-05-08 06:00:00 7.3 4 Este 12 Este 0.2 -- -- 95
2018-05-08 05:00:00 7.5 3 Oeste 18 Este 0 -- -- 95
2018-05-08 04:00:00 7.9 2 Este 10 Este 0 -- -- 95
2018-05-08 03:00:00 8.2 0 Calma 4 Sudeste 0 -- -- 95
2018-05-08 02:00:00 8.9 0 Calma 5 Este 0 -- -- 93
2018-05-08 01:00:00 9.7 0 Calma 4 Sur 0 -- -- 93
2018-05-08 00:00:00 10.6 3 Sudeste 7 Sur 0 -- -- 91
2018-05-07 23:00:00 11.7 3 Sur 6 Oeste 0 -- -- 92
2018-05-07 22:00:00 12.5 2 Sur 12 Noroeste 0.2 -- -- 89
2018-05-07 21:00:00 13.9 4 Noroeste 8 Noroeste 0 -- -- 79
2018-05-07 20:00:00 14.9 3 Norte 8 Sudeste 0.2 -- -- 78
2018-05-07 19:00:00 15 5 Sudeste 15 Sur 0 -- -- 79
2018-05-07 18:00:00 12.8 13 Sur 21 Sur 0 -- -- 85
2018-05-07 17:00:00 11.1 3 Nordeste 14 Sur 0.8 -- -- 92
2018-05-07 16:00:00 10.3 5 Oeste 15 Sudeste 12 -- -- 88
2018-05-07 15:00:00 13.3 7 Sudoeste 25 Este 2.4 -- -- 84
2018-05-07 14:00:00 16.7 5 Nordeste 18 Noroeste 0 -- -- 62
2018-05-07 13:00:00 15.9 8 Norte 19 Norte 0 -- -- 70
2018-05-07 12:00:00 13.6 4 Sur 10 Sudeste 0.2 -- -- 83
2018-05-07 11:00:00 11.4 5 Sudeste 9 Sudeste 0.4 -- -- 87
2018-05-07 10:00:00 8.7 0 Calma 8 Este 0 -- -- 83
2018-05-07 09:00:00 7.1 0 Calma 7 Oeste 0 -- -- 89
2018-05-07 08:00:00 6 0 Calma 13 Sudeste 0 -- -- 91
2018-05-07 07:00:00 5.1 2 Este 9 Este 0 -- -- 92
2018-05-07 06:00:00 5.4 0 Calma 6 Sur 0 -- -- 91
2018-05-07 05:00:00 5.9 0 Calma 9 Sudeste 0 -- -- 91
2018-05-07 04:00:00 6.3 0 Calma 6 Sudeste 0 -- -- 91
2018-05-07 03:00:00 6.9 2 Sur 9 Este 0 -- -- 89
2018-05-07 02:00:00 7.4 0 Calma 8 Este 0 -- -- 86
2018-05-07 01:00:00 8.4 0 Calma 3 Este 0 -- -- 83
2018-05-07 00:00:00 9.8 0 Calma 5 Sur 0 -- -- 80
2018-05-06 23:00:00 11.1 3 Sudoeste 10 Sudoeste 0 -- -- 77
2018-05-06 22:00:00 12.2 4 Sur 21 Sudoeste 0 -- -- 73
2018-05-06 21:00:00 13.2 12 Sur 22 Sudoeste 0 -- -- 68
2018-05-06 20:00:00 14.9 8 Este 33 Este 0 -- -- 66
2018-05-06 19:00:00 18 17 Este 30 Este 0 -- -- 48
2018-05-06 18:00:00 19.2 11 Norte 21 Norte 0 -- -- 42
2018-05-06 17:00:00 19.2 9 Este 24 Este 0 -- -- 42
2018-05-06 16:00:00 19.7 8 Este 27 Este 0 -- -- 41
2018-05-06 15:00:00 18.8 8 Norte 19 Este 0 -- -- 43
2018-05-06 14:00:00 17.6 7 Nordeste 24 Sudeste 0 -- -- 48
2018-05-06 13:00:00 17.5 12 Este 25 Este 0 -- -- 50
2018-05-06 12:00:00 16 5 Nordeste 16 Nordeste 0 -- -- 56
2018-05-06 11:00:00 15 8 Norte 15 Noroeste 0 -- -- 60
2018-05-06 10:00:00 12.2 3 Este 12 Este 0 -- -- 71
2018-05-06 09:00:00 8.9 8 Este 17 Este 0 -- -- 82
2018-05-06 08:00:00 6.1 6 Sudeste 14 Sudeste 0 -- -- 90
2018-05-06 07:00:00 6 0 Calma 8 Sudeste 0 -- -- 90
2018-05-06 06:00:00 5.9 2 Sur 11 Sudeste 0 -- -- 90
2018-05-06 05:00:00 6.5 6 Sudeste 12 Este 0 -- -- 89
2018-05-06 04:00:00 7.1 4 Sudeste 9 Sudeste 0 -- -- 87
2018-05-06 03:00:00 8.1 0 Calma 4 Sur 0 -- -- 85
2018-05-06 02:00:00 9.6 0 Calma 4 Sudeste 0 -- -- 81
2018-05-06 01:00:00 10.2 2 Nordeste 5 Este 0 -- -- 80
2018-05-06 00:00:00 10.6 0 Calma 5 Sudeste 0 -- -- 77
2018-05-05 23:00:00 11.2 0 Calma 7 Oeste 0 -- -- 74
2018-05-05 22:00:00 12.1 3 Sudoeste 10 Sudeste 0 -- -- 70
2018-05-05 21:00:00 13.5 5 Sudeste 14 Sudeste 0 -- -- 64
2018-05-05 20:00:00 15.1 8 Sur 14 Sur 0 -- -- 60
2018-05-05 19:00:00 15.6 10 Sudeste 20 Sudeste 0 -- -- 59
2018-05-05 18:00:00 16 10 Sudeste 33 Este 0 -- -- 58
2018-05-05 17:00:00 18.5 5 Sudeste 18 Noroeste 0 -- -- 43
2018-05-05 16:00:00 17.5 5 Nordeste 19 Norte 0 -- -- 47
2018-05-05 15:00:00 17.5 6 Nordeste 22 Sudeste 0 -- -- 45
2018-05-05 14:00:00 17.6 10 Norte 26 Norte 0 -- -- 45
2018-05-05 13:00:00 16.9 13 Norte 22 Norte 0 -- -- 47
2018-05-05 12:00:00 16.5 7 Este 18 Este 0 -- -- 50
2018-05-05 11:00:00 13.6 6 Nordeste 15 Norte 0 -- -- 58
2018-05-05 10:00:00 10.8 3 Sudeste 8 Este 0 -- -- 67
2018-05-05 09:00:00 7.2 2 Sudeste 4 Este 0 -- -- 77
2018-05-05 08:00:00 5.8 0 Calma 6 Este 0 -- -- 82
2018-05-05 07:00:00 5.2 0 Calma 11 Sudeste 0 -- -- 82
2018-05-05 06:00:00 5.3 4 Sudeste 18 Sudeste 0 -- -- 82
2018-05-05 05:00:00 4.4 3 Sudeste 9 Este 0 -- -- 84
2018-05-05 04:00:00 4.4 3 Sur 7 Noroeste 0 -- -- 83
2018-05-05 03:00:00 5.4 3 Norte 6 Sur 0 -- -- 81
2018-05-05 02:00:00 6.7 3 Sur 9 Norte 0 -- -- 76
2018-05-05 01:00:00 7.5 5 Noroeste 14 Norte 0 -- -- 73
2018-05-05 00:00:00 8.6 5 Norte 21 Noroeste 0 -- -- 70
2018-05-04 23:00:00 10.1 7 Norte 19 Noroeste 0 -- -- 64
2018-05-04 22:00:00 12 6 Norte 19 Noroeste 0 -- -- 57
2018-05-04 21:00:00 13.5 12 Noroeste 22 Noroeste 0 -- -- 52
2018-05-04 20:00:00 15.1 9 Norte 24 Norte 0 -- -- 47
2018-05-04 19:00:00 16.3 10 Norte 22 Noroeste 0 -- -- 43
2018-05-04 18:00:00 16.6 13 Norte 24 Noroeste 0 -- -- 40
2018-05-04 17:00:00 16.4 10 Norte 26 Noroeste 0 -- -- 41
2018-05-04 16:00:00 15.9 8 Norte 23 Nordeste 0 -- -- 42
2018-05-04 15:00:00 15 8 Norte 26 Norte 0 -- -- 43
2018-05-04 14:00:00 13.4 9 Norte 22 Norte 0 -- -- 49
2018-05-04 13:00:00 11.5 6 Norte 23 Noroeste 0 -- -- 55
2018-05-04 12:00:00 8.8 12 Norte 25 Nordeste 0 -- -- 63
2018-05-04 11:00:00 6.7 13 Norte 29 Norte 0 -- -- 70
2018-05-04 10:00:00 5.5 17 Norte 35 Noroeste 0 -- -- 75
2018-05-04 09:00:00 4.6 18 Noroeste 32 Noroeste 0 -- -- 78
2018-05-04 08:00:00 4.1 14 Noroeste 27 Norte 0 -- -- 78
2018-05-04 07:00:00 4 10 Noroeste 26 Noroeste 0 -- -- 77
2018-05-04 06:00:00 4 11 Noroeste 25 Norte 0 -- -- 76
2018-05-04 05:00:00 4 10 Noroeste 20 Noroeste 0 -- -- 76
2018-05-04 04:00:00 3.6 3 Norte 14 Noroeste 0 -- -- 77
2018-05-04 03:00:00 2.9 4 Oeste 10 Oeste 0 -- -- 79
2018-05-04 02:00:00 3 9 Noroeste 16 Noroeste 0 -- -- 78
2018-05-04 01:00:00 4.1 9 Noroeste 26 Norte 0 -- -- 74
2018-05-04 00:00:00 5.3 7 Nordeste 20 Nordeste 0 -- -- 73
2018-05-03 23:00:00 5.9 10 Norte 19 Norte 0 -- -- 72
2018-05-03 22:00:00 6.9 8 Norte 29 Norte 0 -- -- 69
2018-05-03 21:00:00 8.5 15 Norte 35 Noroeste 0 -- -- 63
2018-05-03 20:00:00 10.8 17 Noroeste 33 Noroeste 0 -- -- 53
2018-05-03 19:00:00 12.1 20 Noroeste 39 Noroeste 0 -- -- 49
2018-05-03 18:00:00 13 19 Noroeste 39 Noroeste 0 -- -- 45
2018-05-03 17:00:00 13.5 15 Norte 35 Norte 0 -- -- 45
2018-05-03 16:00:00 12.8 19 Noroeste 39 Noroeste 0 -- -- 41
2018-05-03 15:00:00 13 17 Norte 38 Noroeste 0 -- -- 38
2018-05-03 14:00:00 12.3 24 Noroeste 41 Noroeste 0 -- -- 38
2018-05-03 13:00:00 12 27 Noroeste 46 Noroeste 0 -- -- 46
2018-05-03 12:00:00 11.2 21 Norte 42 Oeste 0 -- -- 48
2018-05-03 11:00:00 9.8 22 Noroeste 38 Norte 0 -- -- 61
2018-05-03 10:00:00 8.4 12 Noroeste 37 Norte 0 -- -- 69
2018-05-03 09:00:00 8.5 15 Noroeste 32 Noroeste 0 -- -- 74
2018-05-03 08:00:00 8 0 Calma 19 Sudeste 0 -- -- 76
2018-05-03 07:00:00 8 4 Noroeste 26 Noroeste 0 -- -- 77
2018-05-03 06:00:00 8 15 Noroeste 26 Norte 0 -- -- 76
2018-05-03 05:00:00 7.2 5 Noroeste 10 Noroeste 0 -- -- 78
2018-05-03 04:00:00 7.7 0 Calma 15 Oeste 0 -- -- 78
2018-05-03 03:00:00 6.4 0 Calma 8 Sudeste 0 -- -- 79
2018-05-03 02:00:00 5.9 2 Sudoeste 8 Oeste 0 -- -- 77
2018-05-03 01:00:00 6 5 Oeste 9 Oeste 0 -- -- 77
2018-05-03 00:00:00 8.2 4 Noroeste 19 Norte 0 -- -- 70
2018-05-02 23:00:00 9.4 7 Noroeste 14 Noroeste 0 -- -- 54
2018-05-02 22:00:00 9.4 2 Noroeste 7 Noroeste 0 -- -- 53
2018-05-02 21:00:00 11.1 4 Noroeste 23 Noroeste 0 -- -- 49
2018-05-02 20:00:00 13.3 15 Noroeste 32 Oeste 0 -- -- 43
2018-05-02 19:00:00 13.6 17 Oeste 35 Oeste 0 -- -- 42
2018-05-02 18:00:00 13.8 16 Oeste 32 Oeste 0 -- -- 42
2018-05-02 17:00:00 13.3 13 Noroeste 27 Oeste 0 -- -- 41
2018-05-02 16:00:00 12.8 9 Oeste 31 Oeste 0 -- -- 42
2018-05-02 15:00:00 12.4 8 Oeste 31 Oeste 0 -- -- 42
2018-05-02 14:00:00 12.4 9 Oeste 28 Oeste 0 -- -- 40
2018-05-02 13:00:00 11.5 13 Noroeste 32 Noroeste 0 -- -- 39
2018-05-02 12:00:00 11.4 16 Noroeste 40 Noroeste 0 -- -- 38
2018-05-02 11:00:00 10.4 21 Noroeste 35 Noroeste 0 -- -- 40
2018-05-02 10:00:00 6.7 5 Este 23 Este 0 -- -- 56
2018-05-02 09:00:00 2.5 9 Sudeste 16 Sudeste 0 -- -- 69
2018-05-02 08:00:00 0.4 12 Sudeste 17 Sudeste 0 -- -- 74
2018-05-02 07:00:00 -0.7 9 Sudeste 18 Este 0 -- -- 77
2018-05-02 06:00:00 -0.7 5 Sudeste 17 Este 0 -- -- 76
2018-05-02 05:00:00 -0.8 4 Sudeste 11 Este 0 -- -- 77
2018-05-02 04:00:00 -0.4 2 Nordeste 15 Este 0 -- -- 73
2018-05-02 03:00:00 0.5 8 Sudeste 15 Sudeste 0 -- -- 72
2018-05-02 02:00:00 0.8 0 Calma 4 Sudeste 0 -- -- 69
2018-05-02 01:00:00 1.8 0 Calma 5 Este 0 -- -- 66
2018-05-02 00:00:00 2.9 0 Calma 5 Sur 0 -- -- 61
2018-05-01 23:00:00 4.5 2 Sudoeste 10 Noroeste 0 -- -- 54
2018-05-01 22:00:00 6.3 8 Noroeste 15 Noroeste 0 -- -- 47
2018-05-01 21:00:00 8.7 12 Noroeste 22 Norte 0 -- -- 40
2018-05-01 20:00:00 10.5 11 Noroeste 21 Noroeste 0 -- -- 37
2018-05-01 19:00:00 10.2 8 Noroeste 24 Noroeste 0 -- -- 39
2018-05-01 18:00:00 11.5 9 Noroeste 26 Noroeste 0 -- -- 36
2018-05-01 17:00:00 10.9 10 Norte 23 Noroeste 0 -- -- 40
2018-05-01 16:00:00 9.5 11 Noroeste 26 Noroeste 0 -- -- 42
2018-05-01 15:00:00 8.9 11 Noroeste 24 Noroeste 0 -- -- 45
2018-05-01 14:00:00 8.8 9 Norte 30 Nordeste 0 -- -- 48
2018-05-01 13:00:00 7.6 12 Norte 35 Noroeste 0 -- -- 55
2018-05-01 12:00:00 6.2 17 Noroeste 30 Noroeste -- -- -- 58
2018-05-01 11:00:00 4.7 17 Noroeste 27 Noroeste 0 -- -- 64
2018-05-01 10:00:00 3.9 12 Norte 25 Norte 0 -- -- 68
2018-05-01 09:00:00 3.5 10 Noroeste 24 Noroeste 0 -- -- 73
2018-05-01 08:00:00 2.7 5 Noroeste 15 Noroeste 0 -- -- 80
2018-05-01 07:00:00 2.5 4 Norte 11 Noroeste 0 -- -- 81
2018-05-01 06:00:00 2.5 6 Noroeste 17 Norte 0 -- -- 80
2018-05-01 05:00:00 2.4 8 Noroeste 18 Noroeste 0 -- -- 81
2018-05-01 04:00:00 1.2 2 Noroeste 6 Noroeste 0 -- -- 83
2018-05-01 03:00:00 0.2 0 Calma 4 Sudoeste 0 -- -- 87
2018-05-01 02:00:00 0.7 0 Calma 4 Sudoeste 0 -- -- 83
2018-05-01 01:00:00 1.1 0 Calma 5 Noroeste 0 -- -- 83
2018-05-01 00:00:00 1.3 4 Noroeste 7 Oeste 0 -- -- 82
2018-04-30 23:00:00 3.1 3 Noroeste 9 Nordeste 0 -- -- 79
2018-04-30 22:00:00 4.3 3 Nordeste 15 Oeste 0 -- -- 78
2018-04-30 21:00:00 5.2 5 Oeste 18 Oeste 0 -- -- 68
2018-04-30 20:00:00 6.6 12 Oeste 34 Noroeste 0 -- -- 58
2018-04-30 19:00:00 10 12 Sudoeste 24 Noroeste 0 -- -- 40
2018-04-30 18:00:00 9.5 13 Sur 24 Sur 0 -- -- 43
2018-04-30 17:00:00 8.1 13 Sur 23 Sudoeste 0 -- -- 53
2018-04-30 16:00:00 9.1 8 Sur 28 Sudoeste 0 -- -- 43
2018-04-30 15:00:00 8.5 9 Sur 23 Sudoeste 0 -- -- 47
2018-04-30 14:00:00 8.7 10 Sudoeste 28 Sudoeste 0 -- -- 45
2018-04-30 13:00:00 8.1 10 Oeste 26 Sudoeste 0 -- -- 46
2018-04-30 12:00:00 7.5 11 Sudoeste 26 Sudoeste 0 -- -- 46
2018-04-30 11:00:00 6.5 12 Sur 23 Sur 0 -- -- 54
2018-04-30 10:00:00 4.9 10 Sudoeste 23 Sudoeste 0 -- -- 62
2018-04-30 09:00:00 4.1 3 Sudeste 10 Sur 0 -- -- 69
2018-04-30 08:00:00 2.3 0 Calma 6 Sudoeste 0 -- -- 78
2018-04-30 07:00:00 2.7 0 Calma 11 Sur 0 -- -- 73
2018-04-30 06:00:00 3.1 3 Sudoeste 12 Sur 0 -- -- 74
2018-04-30 05:00:00 4.1 5 Sur 10 Sur 0 -- -- 72
2018-04-30 04:00:00 4.1 3 Oeste 11 Sudoeste 0 -- -- 69
2018-04-30 03:00:00 3.8 0 Calma 12 Sudoeste 0 -- -- 70
2018-04-30 02:00:00 4.7 0 Calma 13 Sudoeste 0 -- -- 67
2018-04-30 01:00:00 4.5 4 Sudoeste 19 Sudoeste 0 -- -- 64
2018-04-30 00:00:00 5.5 10 Sur 18 Sudoeste 0 -- -- 63
2018-04-29 23:00:00 5.1 4 Sur 16 Sur 0 -- -- 67
2018-04-29 22:00:00 5.1 3 Sudoeste 15 Sur 0 -- -- 66
2018-04-29 21:00:00 6.2 11 Sudoeste 29 Oeste 0 -- -- 65
2018-04-29 20:00:00 7.8 9 Sur 37 Sur 0 -- -- 58
2018-04-29 19:00:00 8.9 10 Sudoeste 40 Sudoeste 0 -- -- 55
2018-04-29 18:00:00 10.1 8 Oeste 42 Oeste 0 -- -- 49
2018-04-29 17:00:00 9.4 16 Sudoeste 50 Sur 0 -- -- 52
2018-04-29 16:00:00 8.8 18 Sudoeste 40 Sudoeste 0 -- -- 62
2018-04-29 15:00:00 8.2 17 Oeste 43 Sudoeste 0 -- -- 65
2018-04-29 14:00:00 7.9 17 Sudoeste 45 Sudoeste 0.2 -- -- 67
2018-04-29 13:00:00 6.5 17 Sur 41 Sudoeste 0 -- -- 78
2018-04-29 12:00:00 6.5 13 Sudoeste 39 Sur 0 -- -- 77
2018-04-29 11:00:00 6.1 23 Sur 44 Sur 0.2 -- -- 73
2018-04-29 10:00:00 6.4 18 Sur 42 Sur 0 -- -- 72
2018-04-29 09:00:00 4.1 7 Sur 20 Sur 0.6 -- -- 82
2018-04-29 08:00:00 4.3 11 Sudoeste 24 Sudoeste 0.2 -- -- 81
2018-04-29 07:00:00 6.7 11 Sur 21 Sudeste 0 -- -- 63
2018-04-29 06:00:00 6.5 5 Sudoeste 13 Sur 0 -- -- 63
2018-04-29 05:00:00 7.1 5 Sur 15 Sudoeste 0 -- -- 65
2018-04-29 04:00:00 7 6 Sudoeste 11 Sudoeste 0 -- -- 65
2018-04-29 03:00:00 7.4 5 Sudoeste 12 Sudeste 0 -- -- 63
2018-04-29 02:00:00 8.9 6 Sur 17 Oeste 0 -- -- 58
2018-04-29 01:00:00 10.1 7 Oeste 12 Oeste 0 -- -- 60
2018-04-29 00:00:00 10.7 3 Sur 13 Sudeste 0 -- -- 61
2018-04-28 23:00:00 12.2 11 Sudeste 24 Sudeste 0 -- -- 55
2018-04-28 22:00:00 12.8 8 Sudeste 20 Sudeste 0 -- -- 54
2018-04-28 21:00:00 14.1 8 Sur 29 Sur 0 -- -- 49
2018-04-28 20:00:00 15.5 18 Sur 47 Sur 0 -- -- 44
2018-04-28 19:00:00 17.3 16 Sur 40 Sudeste 0 -- -- 42
2018-04-28 18:00:00 16.6 19 Sudeste 40 Sudeste 0 -- -- 43
2018-04-28 17:00:00 16.7 20 Sur 42 Sudeste 0 -- -- 41
2018-04-28 16:00:00 17.1 14 Sur 48 Sur 0 -- -- 40
2018-04-28 15:00:00 18.2 20 Sur 49 Sudeste 0 -- -- 37
2018-04-28 14:00:00 18.4 19 Sur 48 Sudeste 0 -- -- 34
2018-04-28 13:00:00 18.2 21 Sur 43 Sudeste 0 -- -- 37
2018-04-28 12:00:00 17.5 19 Sudeste 40 Sudeste 0 -- -- 43
2018-04-28 11:00:00 16 16 Sur 40 Sur 0 -- -- 49
2018-04-28 10:00:00 13.9 17 Sudeste 29 Sudeste 0 -- -- 57
2018-04-28 09:00:00 7.5 2 Sudeste 5 Sudoeste 0 -- -- 76
2018-04-28 08:00:00 4.3 3 Nordeste 9 Sudeste 0 -- -- 80
2018-04-28 07:00:00 4.8 3 Sudoeste 14 Sudeste 0 -- -- 77
2018-04-28 06:00:00 5.2 4 Sudeste 11 Sudeste 0 -- -- 74
2018-04-28 05:00:00 5.9 4 Sudeste 10 Sudeste 0 -- -- 71
2018-04-28 04:00:00 6.6 3 Sudeste 9 Este 0 -- -- 68
2018-04-28 03:00:00 8.2 4 Sudeste 13 Sudeste 0 -- -- 61
2018-04-28 02:00:00 8.6 2 Noroeste 12 Sudeste 0 -- -- 60
2018-04-28 01:00:00 9.9 4 Este 8 Sudeste 0 -- -- 57
2018-04-28 00:00:00 11.1 0 Calma 10 Sudoeste 0 -- -- 50
2018-04-27 23:00:00 12.9 10 Sudoeste 14 Sudoeste 0 -- -- 46
2018-04-27 22:00:00 14.3 6 Sudoeste 10 Sudoeste 0 -- -- 43
2018-04-27 21:00:00 17.3 8 Sudoeste 22 Sudoeste 0 -- -- 38
2018-04-27 20:00:00 19.7 11 Sur 24 Sur 0 -- -- 27
2018-04-27 19:00:00 21.3 14 Sudoeste 28 Sudoeste 0 -- -- 30
2018-04-27 18:00:00 22.1 14 Sur 30 Sudoeste 0 -- -- 32
2018-04-27 17:00:00 23.2 14 Sudoeste 31 Oeste 0 -- -- 36
2018-04-27 16:00:00 22.1 13 Sudoeste 34 Oeste 0 -- -- 41
2018-04-27 15:00:00 23.1 13 Sur 30 Sudoeste 0 -- -- 35
2018-04-27 14:00:00 22.8 12 Sudeste 29 Sudoeste 0 -- -- 38
2018-04-27 13:00:00 21.2 15 Sur 30 Sudoeste 0 -- -- 39
2018-04-27 12:00:00 20.6 7 Sudoeste 22 Oeste 0 -- -- 43
2018-04-27 11:00:00 19.5 10 Sudeste 22 Sudeste 0 -- -- 54
2018-04-27 10:00:00 17.2 10 Sur 20 Sudeste 0 -- -- 61
2018-04-27 09:00:00 13.7 7 Sudeste 15 Sudeste 0 -- -- 73
2018-04-27 08:00:00 9.4 2 Sudoeste 5 Oeste 0 -- -- 79
2018-04-27 07:00:00 10 0 Calma 8 Sudoeste 0 -- -- 74
2018-04-27 06:00:00 11.9 3 Sudoeste 17 Sur 0 -- -- 68
2018-04-27 05:00:00 13.1 5 Sudoeste 14 Oeste 0 -- -- 62
2018-04-27 04:00:00 13.3 6 Sur 17 Sudoeste 0 -- -- 61
2018-04-27 03:00:00 13.5 13 Sur 21 Sur 0 -- -- 63
2018-04-27 02:00:00 14 12 Sur 22 Sur 0 -- -- 62
2018-04-27 01:00:00 14.6 7 Sur 12 Sudoeste 0 -- -- 61
2018-04-27 00:00:00 15.5 8 Sudoeste 16 Sur -- -- -- 59
2018-04-26 23:00:00 15.4 9 Sudoeste 18 Sudoeste 0 -- -- 59
2018-04-26 22:00:00 16.9 6 Sudoeste 17 Sudoeste 0 -- -- 54
2018-04-26 21:00:00 17.4 8 Sur 19 Sur 0 -- -- 51
2018-04-26 20:00:00 18.2 12 Sur 20 Sur 0 -- -- 48
2018-04-26 19:00:00 21.5 9 Sudoeste 18 Sudoeste 0 -- -- 39
2018-04-26 18:00:00 23 7 Norte 24 Noroeste 0 -- -- 30
2018-04-26 17:00:00 23 10 Norte 22 Norte 0 -- -- 30
2018-04-26 16:00:00 23.2 9 Norte 20 Norte 0 -- -- 30
2018-04-26 15:00:00 22.3 9 Norte 18 Noroeste 0 -- -- 32
2018-04-26 14:00:00 20.5 10 Norte 21 Norte 0 -- -- 37
2018-04-26 13:00:00 18.7 9 Norte 15 Nordeste 0 -- -- 41
2018-04-26 12:00:00 16.7 8 Norte 17 Norte 0 -- -- 55
2018-04-26 11:00:00 15.3 3 Nordeste 9 Sudeste 0 -- -- 59
2018-04-26 10:00:00 12.2 3 Sudeste 6 Este 0 -- -- 69
2018-04-26 09:00:00 8.7 2 Noroeste 5 Noroeste 0 -- -- 86
2018-04-26 08:00:00 6.5 2 Noroeste 4 Sur 0 -- -- 92
2018-04-26 07:00:00 7 0 Calma 6 Norte 0 -- -- 89
2018-04-26 06:00:00 7.8 6 Oeste 9 Oeste 0 -- -- 90
2018-04-26 05:00:00 9.1 4 Sudoeste 9 Sur 0 -- -- 89
2018-04-26 04:00:00 9.9 0 Calma 5 Sur 0 -- -- 86
2018-04-26 03:00:00 10.7 0 Calma 6 Norte 0 -- -- 84
2018-04-26 02:00:00 11.3 3 Norte 8 Norte 0 -- -- 82
2018-04-26 01:00:00 11.6 3 Sur 9 Sur 0 -- -- 73
2018-04-26 00:00:00 11.6 6 Sur 9 Sur 0 -- -- 64
2018-04-25 23:00:00 12.2 0 Calma 10 Oeste 0 -- -- 58
2018-04-25 22:00:00 14.2 4 Oeste 8 Oeste 0 -- -- 51
2018-04-25 21:00:00 17.3 3 Norte 22 Este 0 -- -- 42
2018-04-25 20:00:00 18.9 12 Este 28 Sudeste 0 -- -- 41
2018-04-25 19:00:00 20.8 13 Este 31 Este 0 -- -- 38
2018-04-25 18:00:00 22.6 21 Este 35 Sudeste 0 -- -- 35
2018-04-25 17:00:00 23.3 12 Este 40 Nordeste 0 -- -- 30
2018-04-25 16:00:00 23.2 14 Norte 44 Noroeste 0 -- -- 28
2018-04-25 15:00:00 23.7 14 Norte 32 Norte 0 -- -- 28
2018-04-25 14:00:00 23.3 10 Norte 28 Norte 0 -- -- 29
2018-04-25 13:00:00 22 10 Norte 24 Nordeste 0 -- -- 27
2018-04-25 12:00:00 20.6 10 Nordeste 21 Nordeste 0 -- -- 34
2018-04-25 11:00:00 18.1 3 Este 11 Este 0 -- -- 48
2018-04-25 10:00:00 13.1 7 Este 16 Este 0 -- -- 63
2018-04-25 09:00:00 8.8 3 Norte 19 Sudeste 0 -- -- 75
2018-04-25 08:00:00 6.4 4 Noroeste 9 Este 0 -- -- 81
2018-04-25 07:00:00 7.2 8 Este 18 Sudeste 0 -- -- 78
2018-04-25 06:00:00 6.8 3 Oeste 12 Sudeste 0 -- -- 80
2018-04-25 05:00:00 7.1 5 Este 12 Sudeste 0 -- -- 79
2018-04-25 04:00:00 7.6 3 Oeste 9 Sudeste 0 -- -- 77
2018-04-25 03:00:00 8.5 0 Calma 6 Sudeste 0 -- -- 72
2018-04-25 02:00:00 9.4 3 Sudeste 7 Sudeste 0 -- -- 70
2018-04-25 01:00:00 10.4 2 Sur 5 Este 0 -- -- 65
2018-04-25 00:00:00 11.6 2 Sudeste 6 Oeste 0 -- -- 61